sensor_id;sensor_type;location;lat;lon;timestamp;pressure;altitude;pressure_sealevel;temperature;humidity
74346;BME280;62776;50.518;6.732;2023-06-14T00:02:19;96331.00;;;17.40;51.35
74346;BME280;62776;50.518;6.732;2023-06-14T00:05:09;96327.91;;;17.30;49.69
74346;BME280;62776;50.518;6.732;2023-06-14T00:07:59;96328.13;;;17.24;50.14
74346;BME280;62776;50.518;6.732;2023-06-14T00:10:49;96328.19;;;17.23;50.28
74346;BME280;62776;50.518;6.732;2023-06-14T00:13:41;96334.19;;;17.26;51.55
74346;BME280;62776;50.518;6.732;2023-06-14T00:16:30;96331.66;;;17.23;51.52
74346;BME280;62776;50.518;6.732;2023-06-14T00:19:20;96328.47;;;17.17;50.05
74346;BME280;62776;50.518;6.732;2023-06-14T00:22:08;96328.47;;;17.17;50.74
74346;BME280;62776;50.518;6.732;2023-06-14T00:24:55;96330.34;;;17.13;52.67
74346;BME280;62776;50.518;6.732;2023-06-14T00:27:45;96337.59;;;17.06;50.90
74346;BME280;62776;50.518;6.732;2023-06-14T00:30:32;96339.53;;;17.01;50.88
74346;BME280;62776;50.518;6.732;2023-06-14T00:33:22;96332.75;;;16.96;52.04
74346;BME280;62776;50.518;6.732;2023-06-14T00:36:15;96340.16;;;16.86;51.59
74346;BME280;62776;50.518;6.732;2023-06-14T00:39:04;96331.13;;;16.93;51.21
74346;BME280;62776;50.518;6.732;2023-06-14T00:41:50;96335.56;;;16.91;53.28
74346;BME280;62776;50.518;6.732;2023-06-14T00:44:52;96336.59;;;16.87;55.38
74346;BME280;62776;50.518;6.732;2023-06-14T00:47:44;96324.41;;;16.86;54.75
74346;BME280;62776;50.518;6.732;2023-06-14T00:50:34;96332.44;;;16.82;52.18
74346;BME280;62776;50.518;6.732;2023-06-14T00:53:23;96324.56;;;16.82;53.93
74346;BME280;62776;50.518;6.732;2023-06-14T00:56:14;96331.94;;;16.72;52.61
74346;BME280;62776;50.518;6.732;2023-06-14T00:59:03;96329.34;;;16.71;54.52
74346;BME280;62776;50.518;6.732;2023-06-14T01:01:51;96322.31;;;16.73;53.19
74346;BME280;62776;50.518;6.732;2023-06-14T01:04:40;96331.19;;;16.69;54.84
74346;BME280;62776;50.518;6.732;2023-06-14T01:11:00;96333.28;;;16.59;54.37
74346;BME280;62776;50.518;6.732;2023-06-14T01:13:58;96332.06;;;16.69;53.59
74346;BME280;62776;50.518;6.732;2023-06-14T01:16:56;96328.56;;;16.69;56.62
74346;BME280;62776;50.518;6.732;2023-06-14T01:19:50;96331.38;;;16.64;55.59
74346;BME280;62776;50.518;6.732;2023-06-14T01:22:54;96342.03;;;16.60;53.49
74346;BME280;62776;50.518;6.732;2023-06-14T01:25:41;96326.13;;;16.64;53.47
74346;BME280;62776;50.518;6.732;2023-06-14T01:28:33;96331.19;;;16.69;54.19
74346;BME280;62776;50.518;6.732;2023-06-14T01:31:26;96335.69;;;16.65;53.97
74346;BME280;62776;50.518;6.732;2023-06-14T01:34:29;96344.38;;;16.67;54.79
74346;BME280;62776;50.518;6.732;2023-06-14T01:37:16;96342.59;;;16.68;54.01
74346;BME280;62776;50.518;6.732;2023-06-14T01:40:06;96347.16;;;16.63;55.08
74346;BME280;62776;50.518;6.732;2023-06-14T01:43:02;96348.56;;;16.48;54.94
74346;BME280;62776;50.518;6.732;2023-06-14T01:45:52;96346.00;;;16.46;56.37
74346;BME280;62776;50.518;6.732;2023-06-14T01:48:42;96346.09;;;16.43;57.08
74346;BME280;62776;50.518;6.732;2023-06-14T01:51:30;96349.81;;;16.38;56.82
74346;BME280;62776;50.518;6.732;2023-06-14T01:54:17;96347.38;;;16.32;57.53
74346;BME280;62776;50.518;6.732;2023-06-14T01:57:04;96350.38;;;16.23;58.69
74346;BME280;62776;50.518;6.732;2023-06-14T01:59:58;96355.03;;;16.15;58.42
74346;BME280;62776;50.518;6.732;2023-06-14T02:02:52;96357.69;;;16.13;59.03
74346;BME280;62776;50.518;6.732;2023-06-14T02:05:55;96356.31;;;16.03;60.48
74346;BME280;62776;50.518;6.732;2023-06-14T02:08:50;96346.19;;;15.92;59.68
74346;BME280;62776;50.518;6.732;2023-06-14T02:11:42;96352.22;;;15.94;60.56
74346;BME280;62776;50.518;6.732;2023-06-14T02:14:38;96349.88;;;15.87;60.73
74346;BME280;62776;50.518;6.732;2023-06-14T02:17:26;96349.19;;;15.82;59.93
74346;BME280;62776;50.518;6.732;2023-06-14T02:20:13;96351.16;;;15.75;59.53
74346;BME280;62776;50.518;6.732;2023-06-14T02:23:04;96348.59;;;15.74;65.33
74346;BME280;62776;50.518;6.732;2023-06-14T02:25:52;96348.72;;;15.69;63.84
74346;BME280;62776;50.518;6.732;2023-06-14T02:28:45;96352.47;;;15.62;63.01
74346;BME280;62776;50.518;6.732;2023-06-14T02:31:33;96350.84;;;15.58;63.30
74346;BME280;62776;50.518;6.732;2023-06-14T02:34:26;96351.00;;;15.54;64.52
74346;BME280;62776;50.518;6.732;2023-06-14T02:37:15;96354.59;;;15.51;64.69
74346;BME280;62776;50.518;6.732;2023-06-14T02:40:05;96349.50;;;15.45;66.07
74346;BME280;62776;50.518;6.732;2023-06-14T02:42:54;96361.09;;;15.38;66.73
74346;BME280;62776;50.518;6.732;2023-06-14T02:45:47;96356.19;;;15.27;66.29
74346;BME280;62776;50.518;6.732;2023-06-14T02:48:36;96356.53;;;15.17;64.08
74346;BME280;62776;50.518;6.732;2023-06-14T02:51:25;96358.16;;;15.21;66.69
74346;BME280;62776;50.518;6.732;2023-06-14T02:54:15;96367.84;;;15.19;67.88
74346;BME280;62776;50.518;6.732;2023-06-14T02:57:05;96360.97;;;15.15;65.93
74346;BME280;62776;50.518;6.732;2023-06-14T02:59:53;96364.38;;;15.17;66.59
74346;BME280;62776;50.518;6.732;2023-06-14T03:02:43;96369.72;;;15.14;68.43
74346;BME280;62776;50.518;6.732;2023-06-14T03:05:29;96363.78;;;15.09;67.87
74346;BME280;62776;50.518;6.732;2023-06-14T03:08:25;96369.19;;;15.03;69.56
74346;BME280;62776;50.518;6.732;2023-06-14T03:11:19;96369.28;;;15.00;67.95
74346;BME280;62776;50.518;6.732;2023-06-14T03:14:07;96367.66;;;14.96;66.80
74346;BME280;62776;50.518;6.732;2023-06-14T03:16:54;96376.31;;;14.98;67.51
74346;BME280;62776;50.518;6.732;2023-06-14T03:19:46;96376.41;;;14.95;67.23
74346;BME280;62776;50.518;6.732;2023-06-14T03:22:37;96371.34;;;14.90;65.96
74346;BME280;62776;50.518;6.732;2023-06-14T03:25:23;96369.50;;;14.92;69.96
74346;BME280;62776;50.518;6.732;2023-06-14T03:28:19;96376.63;;;14.89;68.31
74346;BME280;62776;50.518;6.732;2023-06-14T03:31:08;96374.84;;;14.89;68.11
74346;BME280;62776;50.518;6.732;2023-06-14T03:33:58;96372.38;;;14.85;69.67
74346;BME280;62776;50.518;6.732;2023-06-14T03:36:52;96382.13;;;14.80;69.25
74346;BME280;62776;50.518;6.732;2023-06-14T03:39:40;96376.66;;;14.87;71.49
74346;BME280;62776;50.518;6.732;2023-06-14T03:42:41;96381.09;;;14.85;70.84
74346;BME280;62776;50.518;6.732;2023-06-14T03:45:33;96389.09;;;14.79;72.34
74346;BME280;62776;50.518;6.732;2023-06-14T03:48:21;96394.28;;;14.81;71.07
74346;BME280;62776;50.518;6.732;2023-06-14T03:51:34;96397.91;;;14.76;70.53
74346;BME280;62776;50.518;6.732;2023-06-14T03:54:29;96396.06;;;14.80;70.00
74346;BME280;62776;50.518;6.732;2023-06-14T03:57:21;96394.28;;;14.81;69.65
74346;BME280;62776;50.518;6.732;2023-06-14T04:00:10;96400.34;;;14.83;70.48
74346;BME280;62776;50.518;6.732;2023-06-14T04:03:01;96394.09;;;14.87;72.54
74346;BME280;62776;50.518;6.732;2023-06-14T04:05:49;96401.94;;;14.88;73.30
74346;BME280;62776;50.518;6.732;2023-06-14T04:08:45;96404.50;;;14.90;70.01
74346;BME280;62776;50.518;6.732;2023-06-14T04:11:38;96400.91;;;14.94;69.20
74346;BME280;62776;50.518;6.732;2023-06-14T04:14:28;96405.91;;;15.00;70.60
74346;BME280;62776;50.518;6.732;2023-06-14T04:17:18;96407.66;;;15.01;69.14
74346;BME280;62776;50.518;6.732;2023-06-14T04:20:06;96416.13;;;15.09;71.39
74346;BME280;62776;50.518;6.732;2023-06-14T04:22:57;96417.78;;;15.11;70.86
74346;BME280;62776;50.518;6.732;2023-06-14T04:25:52;96416.75;;;15.17;71.26
74346;BME280;62776;50.518;6.732;2023-06-14T04:29:01;96411.41;;;15.20;71.04
74346;BME280;62776;50.518;6.732;2023-06-14T04:31:53;96412.00;;;15.29;69.82
74346;BME280;62776;50.518;6.732;2023-06-14T04:34:43;96404.78;;;15.38;70.31
74346;BME280;62776;50.518;6.732;2023-06-14T04:37:31;96404.47;;;15.48;69.03
74346;BME280;62776;50.518;6.732;2023-06-14T04:40:20;96411.09;;;15.58;70.34
74346;BME280;62776;50.518;6.732;2023-06-14T04:43:36;96418.78;;;15.64;68.31
74346;BME280;62776;50.518;6.732;2023-06-14T04:46:27;96410.53;;;15.76;68.33
74346;BME280;62776;50.518;6.732;2023-06-14T04:49:19;96409.25;;;15.88;71.39
74346;BME280;62776;50.518;6.732;2023-06-14T04:52:05;96415.91;;;15.98;70.35
74346;BME280;62776;50.518;6.732;2023-06-14T04:54:58;96408.69;;;16.05;68.57
74346;BME280;62776;50.518;6.732;2023-06-14T04:57:46;96413.41;;;16.20;68.84
74346;BME280;62776;50.518;6.732;2023-06-14T05:00:37;96414.00;;;16.28;70.95
74346;BME280;62776;50.518;6.732;2023-06-14T05:03:26;96410.13;;;16.38;71.21
74346;BME280;62776;50.518;6.732;2023-06-14T05:06:16;96419.41;;;16.48;72.45
74346;BME280;62776;50.518;6.732;2023-06-14T05:09:05;96426.88;;;16.60;74.65
74346;BME280;62776;50.518;6.732;2023-06-14T05:11:52;96422.09;;;16.71;74.79
74346;BME280;62776;50.518;6.732;2023-06-14T05:14:47;96426.44;;;16.72;76.33
74346;BME280;62776;50.518;6.732;2023-06-14T05:17:39;96428.03;;;16.76;75.91
74346;BME280;62776;50.518;6.732;2023-06-14T05:20:27;96425.28;;;16.79;75.63
74346;BME280;62776;50.518;6.732;2023-06-14T05:23:20;96418.09;;;16.84;75.62
74346;BME280;62776;50.518;6.732;2023-06-14T05:26:12;96431.84;;;16.91;75.46
74346;BME280;62776;50.518;6.732;2023-06-14T05:29:00;96430.56;;;17.02;75.44
74346;BME280;62776;50.518;6.732;2023-06-14T05:31:58;96432.81;;;17.11;75.46
74346;BME280;62776;50.518;6.732;2023-06-14T05:34:47;96434.19;;;17.22;73.21
74346;BME280;62776;50.518;6.732;2023-06-14T05:37:34;96445.38;;;17.27;72.22
74346;BME280;62776;50.518;6.732;2023-06-14T05:40:25;96444.28;;;17.32;70.21
74346;BME280;62776;50.518;6.732;2023-06-14T05:43:20;96445.97;;;17.33;69.74
74346;BME280;62776;50.518;6.732;2023-06-14T05:46:09;96442.97;;;17.44;69.30
74346;BME280;62776;50.518;6.732;2023-06-14T05:49:04;96455.06;;;17.48;64.67
74346;BME280;62776;50.518;6.732;2023-06-14T05:51:55;96453.00;;;17.56;61.24
74346;BME280;62776;50.518;6.732;2023-06-14T05:54:42;96456.94;;;17.67;61.07
74346;BME280;62776;50.518;6.732;2023-06-14T05:57:32;96452.41;;;17.71;61.95
74346;BME280;62776;50.518;6.732;2023-06-14T06:00:20;96447.88;;;17.75;61.30
74346;BME280;62776;50.518;6.732;2023-06-14T06:03:11;96455.53;;;17.81;60.53
74346;BME280;62776;50.518;6.732;2023-06-14T06:06:04;96456.81;;;17.92;61.36
74346;BME280;62776;50.518;6.732;2023-06-14T06:09:12;96453.00;;;17.99;59.43
74346;BME280;62776;50.518;6.732;2023-06-14T06:12:20;96454.34;;;18.09;59.60
74346;BME280;62776;50.518;6.732;2023-06-14T06:15:07;96451.31;;;18.18;60.51
74346;BME280;62776;50.518;6.732;2023-06-14T06:17:55;96453.69;;;18.24;57.49
74346;BME280;62776;50.518;6.732;2023-06-14T06:20:42;96453.19;;;18.37;56.36
74346;BME280;62776;50.518;6.732;2023-06-14T06:23:34;96451.59;;;18.12;57.12
74346;BME280;62776;50.518;6.732;2023-06-14T06:26:33;96451.72;;;18.51;54.50
74346;BME280;62776;50.518;6.732;2023-06-14T06:29:21;96460.06;;;18.61;53.63
74346;BME280;62776;50.518;6.732;2023-06-14T06:32:12;96460.44;;;18.72;53.00
74346;BME280;62776;50.518;6.732;2023-06-14T06:35:03;96465.13;;;18.85;53.90
74346;BME280;62776;50.518;6.732;2023-06-14T06:37:54;96466.22;;;19.00;52.92
74346;BME280;62776;50.518;6.732;2023-06-14T06:40:48;96473.41;;;19.15;51.60
74346;BME280;62776;50.518;6.732;2023-06-14T06:43:35;96473.78;;;19.26;52.85
74346;BME280;62776;50.518;6.732;2023-06-14T06:46:22;96471.59;;;19.36;51.75
74346;BME280;62776;50.518;6.732;2023-06-14T06:49:10;96476.28;;;19.50;51.63
74346;BME280;62776;50.518;6.732;2023-06-14T06:52:08;96484.53;;;19.61;51.12
74346;BME280;62776;50.518;6.732;2023-06-14T06:54:56;96479.66;;;19.70;48.92
74346;BME280;62776;50.518;6.732;2023-06-14T06:57:45;96478.94;;;19.85;50.04
74346;BME280;62776;50.518;6.732;2023-06-14T07:00:31;96484.78;;;19.92;48.93
74346;BME280;62776;50.518;6.732;2023-06-14T07:03:21;96494.88;;;20.01;49.10
74346;BME280;62776;50.518;6.732;2023-06-14T07:06:11;96495.47;;;20.08;48.93
74346;BME280;62776;50.518;6.732;2023-06-14T07:09:00;96495.78;;;20.19;47.01
74346;BME280;62776;50.518;6.732;2023-06-14T07:11:58;96493.50;;;20.30;46.78
74346;BME280;62776;50.518;6.732;2023-06-14T07:14:45;96491.34;;;20.38;46.95
74346;BME280;62776;50.518;6.732;2023-06-14T07:17:34;96490.09;;;20.45;46.05
74346;BME280;62776;50.518;6.732;2023-06-14T07:20:22;96492.34;;;20.52;46.85
74346;BME280;62776;50.518;6.732;2023-06-14T07:23:12;96503.16;;;20.65;46.05
74346;BME280;62776;50.518;6.732;2023-06-14T07:26:05;96497.72;;;20.68;45.37
74346;BME280;62776;50.518;6.732;2023-06-14T07:28:51;96501.34;;;20.83;45.20
74346;BME280;62776;50.518;6.732;2023-06-14T07:31:44;96497.31;;;20.93;45.14
74346;BME280;62776;50.518;6.732;2023-06-14T07:34:36;96496.66;;;21.05;44.61
74346;BME280;62776;50.518;6.732;2023-06-14T07:37:24;96499.63;;;21.16;45.70
74346;BME280;62776;50.518;6.732;2023-06-14T07:40:11;96508.59;;;21.29;44.74
74346;BME280;62776;50.518;6.732;2023-06-14T07:43:01;96509.06;;;21.37;43.75
74346;BME280;62776;50.518;6.732;2023-06-14T07:45:53;96514.63;;;21.48;43.97
74346;BME280;62776;50.518;6.732;2023-06-14T07:48:50;96510.22;;;21.64;42.76
74346;BME280;62776;50.518;6.732;2023-06-14T07:51:36;96514.06;;;21.74;43.81
74346;BME280;62776;50.518;6.732;2023-06-14T07:54:23;96509.09;;;21.84;44.05
74346;BME280;62776;50.518;6.732;2023-06-14T07:57:12;96498.81;;;21.95;41.92
74346;BME280;62776;50.518;6.732;2023-06-14T07:59:58;96511.97;;;21.97;41.51
74346;BME280;62776;50.518;6.732;2023-06-14T08:02:45;96502.91;;;22.01;41.32
74346;BME280;62776;50.518;6.732;2023-06-14T08:05:33;96511.03;;;22.13;41.17
74346;BME280;62776;50.518;6.732;2023-06-14T08:08:20;96505.47;;;22.18;41.05
74346;BME280;62776;50.518;6.732;2023-06-14T08:11:06;96505.19;;;22.22;40.06
74346;BME280;62776;50.518;6.732;2023-06-14T08:13:52;96511.69;;;22.32;41.90
74346;BME280;62776;50.518;6.732;2023-06-14T08:16:38;96509.28;;;22.44;41.51
74346;BME280;62776;50.518;6.732;2023-06-14T08:19:26;96504.97;;;22.57;41.31
74346;BME280;62776;50.518;6.732;2023-06-14T08:22:18;96505.13;;;22.69;39.47
74346;BME280;62776;50.518;6.732;2023-06-14T08:25:05;96511.34;;;22.84;41.11
74346;BME280;62776;50.518;6.732;2023-06-14T08:27:54;96508.59;;;23.00;41.67
74346;BME280;62776;50.518;6.732;2023-06-14T08:30:42;96512.88;;;23.02;39.24
74346;BME280;62776;50.518;6.732;2023-06-14T08:33:29;96513.06;;;22.99;38.39
74346;BME280;62776;50.518;6.732;2023-06-14T08:36:15;96509.41;;;23.02;38.78
74346;BME280;62776;50.518;6.732;2023-06-14T08:39:02;96505.03;;;23.15;40.02
74346;BME280;62776;50.518;6.732;2023-06-14T08:41:49;96507.91;;;23.26;38.46
74346;BME280;62776;50.518;6.732;2023-06-14T08:44:36;96503.69;;;23.37;38.24
74346;BME280;62776;50.518;6.732;2023-06-14T08:47:24;96503.69;;;23.37;38.14
74346;BME280;62776;50.518;6.732;2023-06-14T08:50:21;96504.69;;;23.49;37.86
74346;BME280;62776;50.518;6.732;2023-06-14T08:53:08;96501.47;;;23.58;38.47
74346;BME280;62776;50.518;6.732;2023-06-14T08:55:58;96512.84;;;23.74;37.38
74346;BME280;62776;50.518;6.732;2023-06-14T08:58:49;96505.75;;;23.61;38.20
74346;BME280;62776;50.518;6.732;2023-06-14T09:01:37;96506.22;;;23.81;39.31
74346;BME280;62776;50.518;6.732;2023-06-14T09:04:31;96501.81;;;23.94;38.19
74346;BME280;62776;50.518;6.732;2023-06-14T09:07:19;96509.13;;;23.91;35.69
74346;BME280;62776;50.518;6.732;2023-06-14T09:10:10;96515.31;;;23.77;36.47
74346;BME280;62776;50.518;6.732;2023-06-14T09:12:56;96504.88;;;23.60;35.99
74346;BME280;62776;50.518;6.732;2023-06-14T09:15:43;96514.38;;;23.64;36.89
74346;BME280;62776;50.518;6.732;2023-06-14T09:18:36;96515.66;;;23.85;37.11
74346;BME280;62776;50.518;6.732;2023-06-14T09:21:23;96526.06;;;24.02;36.43
74346;BME280;62776;50.518;6.732;2023-06-14T09:45:23;96520.59;;;23.91;35.48
74346;BME280;62776;50.518;6.732;2023-06-14T09:48:14;96520.22;;;23.97;36.75
74346;BME280;62776;50.518;6.732;2023-06-14T09:51:03;96527.31;;;24.11;35.10
74346;BME280;62776;50.518;6.732;2023-06-14T09:54:03;96527.41;;;24.10;34.74
74346;BME280;62776;50.518;6.732;2023-06-14T09:56:53;96525.06;;;24.32;36.06
74346;BME280;62776;50.518;6.732;2023-06-14T09:59:44;96526.28;;;24.40;35.85
74346;BME280;62776;50.518;6.732;2023-06-14T10:02:36;96519.84;;;24.57;35.82
74346;BME280;62776;50.518;6.732;2023-06-14T10:05:25;96521.56;;;24.58;34.53
74346;BME280;62776;50.518;6.732;2023-06-14T10:08:18;96533.06;;;24.03;33.41
74346;BME280;62776;50.518;6.732;2023-06-14T10:11:09;96535.31;;;23.55;34.45
74346;BME280;62776;50.518;6.732;2023-06-14T10:13:59;96535.59;;;23.78;36.47
74346;BME280;62776;50.518;6.732;2023-06-14T10:17:08;96526.66;;;23.79;35.01
74346;BME280;62776;50.518;6.732;2023-06-14T10:23:16;96521.50;;;24.19;34.12
74346;BME280;62776;50.518;6.732;2023-06-14T10:26:03;96517.44;;;24.40;34.61
74346;BME280;62776;50.518;6.732;2023-06-14T10:29:16;96519.97;;;24.29;33.08
74346;BME280;62776;50.518;6.732;2023-06-14T10:32:02;96517.66;;;24.37;32.63
74346;BME280;62776;50.518;6.732;2023-06-14T10:35:01;96525.72;;;23.94;33.17
74346;BME280;62776;50.518;6.732;2023-06-14T10:37:52;96529.63;;;23.89;32.11
74346;BME280;62776;50.518;6.732;2023-06-14T10:40:40;96526.97;;;23.89;33.20
74346;BME280;62776;50.518;6.732;2023-06-14T10:43:27;96527.41;;;23.95;33.72
74346;BME280;62776;50.518;6.732;2023-06-14T10:46:17;96528.53;;;24.05;33.06
74346;BME280;62776;50.518;6.732;2023-06-14T10:49:05;96520.84;;;24.15;31.99
74346;BME280;62776;50.518;6.732;2023-06-14T10:51:58;96510.66;;;24.36;32.25
74346;BME280;62776;50.518;6.732;2023-06-14T10:55:23;96517.22;;;24.30;32.68
74346;BME280;62776;50.518;6.732;2023-06-14T10:58:10;96512.63;;;24.59;31.74
74346;BME280;62776;50.518;6.732;2023-06-14T11:00:56;96513.59;;;24.58;31.25
74346;BME280;62776;50.518;6.732;2023-06-14T11:03:52;96519.22;;;24.80;31.85
74346;BME280;62776;50.518;6.732;2023-06-14T11:06:50;96515.44;;;24.70;32.16
74346;BME280;62776;50.518;6.732;2023-06-14T11:09:57;96524.56;;;24.66;31.94
74346;BME280;62776;50.518;6.732;2023-06-14T11:12:52;96518.63;;;24.36;32.55
74346;BME280;62776;50.518;6.732;2023-06-14T11:15:47;96520.19;;;24.65;32.99
74346;BME280;62776;50.518;6.732;2023-06-14T11:18:34;96533.34;;;24.81;32.17
74346;BME280;62776;50.518;6.732;2023-06-14T11:21:25;96524.25;;;24.71;32.39
74346;BME280;62776;50.518;6.732;2023-06-14T11:24:22;96514.88;;;24.65;30.81
74346;BME280;62776;50.518;6.732;2023-06-14T11:27:09;96507.31;;;24.59;31.86
74346;BME280;62776;50.518;6.732;2023-06-14T11:29:57;96515.75;;;24.78;31.74
74346;BME280;62776;50.518;6.732;2023-06-14T11:32:52;96518.00;;;24.72;31.56
74346;BME280;62776;50.518;6.732;2023-06-14T11:35:39;96519.91;;;25.09;32.81
74346;BME280;62776;50.518;6.732;2023-06-14T11:38:28;96524.06;;;25.38;31.27
74346;BME280;62776;50.518;6.732;2023-06-14T11:41:17;96513.94;;;25.31;31.00
74346;BME280;62776;50.518;6.732;2023-06-14T11:44:05;96511.94;;;25.21;32.88
74346;BME280;62776;50.518;6.732;2023-06-14T11:46:59;96516.00;;;25.52;32.82
74346;BME280;62776;50.518;6.732;2023-06-14T11:49:49;96511.75;;;25.50;30.43
74346;BME280;62776;50.518;6.732;2023-06-14T11:52:37;96516.22;;;25.62;31.60
74346;BME280;62776;50.518;6.732;2023-06-14T11:55:25;96510.25;;;25.58;31.60
74346;BME280;62776;50.518;6.732;2023-06-14T11:58:19;96513.44;;;25.63;31.29
74346;BME280;62776;50.518;6.732;2023-06-14T12:01:05;96512.88;;;25.33;31.27
74346;BME280;62776;50.518;6.732;2023-06-14T12:03:54;96514.25;;;25.39;32.45
74346;BME280;62776;50.518;6.732;2023-06-14T12:06:41;96513.44;;;25.63;31.70
74346;BME280;62776;50.518;6.732;2023-06-14T12:09:33;96507.69;;;25.82;30.74
74346;BME280;62776;50.518;6.732;2023-06-14T12:12:23;96503.34;;;26.05;30.20
74346;BME280;62776;50.518;6.732;2023-06-14T12:15:11;96502.44;;;26.29;30.22
74346;BME280;62776;50.518;6.732;2023-06-14T12:17:58;96512.22;;;26.29;29.47
74346;BME280;62776;50.518;6.732;2023-06-14T12:20:49;96510.16;;;26.45;30.38
74346;BME280;62776;50.518;6.732;2023-06-14T12:23:50;96516.34;;;25.97;30.42
74346;BME280;62776;50.518;6.732;2023-06-14T12:26:40;96515.72;;;25.93;29.11
74346;BME280;62776;50.518;6.732;2023-06-14T12:29:28;96505.03;;;26.18;30.26
74346;BME280;62776;50.518;6.732;2023-06-14T12:32:16;96509.47;;;26.30;30.94
74346;BME280;62776;50.518;6.732;2023-06-14T12:35:03;96505.72;;;26.33;31.15
74346;BME280;62776;50.518;6.732;2023-06-14T12:37:50;96498.81;;;26.30;30.39
74346;BME280;62776;50.518;6.732;2023-06-14T12:40:37;96498.28;;;26.13;30.15
74346;BME280;62776;50.518;6.732;2023-06-14T12:43:26;96503.25;;;26.06;31.90
74346;BME280;62776;50.518;6.732;2023-06-14T12:46:12;96505.25;;;26.15;30.57
74346;BME280;62776;50.518;6.732;2023-06-14T12:48:58;96500.13;;;26.25;32.12
74346;BME280;62776;50.518;6.732;2023-06-14T12:51:47;96498.38;;;26.36;31.38
74346;BME280;62776;50.518;6.732;2023-06-14T12:54:34;96500.34;;;26.69;32.79
74346;BME280;62776;50.518;6.732;2023-06-14T12:57:21;96499.72;;;27.01;31.18
74346;BME280;62776;50.518;6.732;2023-06-14T13:00:09;96514.38;;;26.95;31.73
74346;BME280;62776;50.518;6.732;2023-06-14T13:02:58;96512.63;;;27.18;30.23
74346;BME280;62776;50.518;6.732;2023-06-14T13:05:45;96512.50;;;27.08;30.16
74346;BME280;62776;50.518;6.732;2023-06-14T13:08:32;96503.97;;;27.03;30.63
74346;BME280;62776;50.518;6.732;2023-06-14T13:11:20;96516.66;;;27.23;31.58
74346;BME280;62776;50.518;6.732;2023-06-14T13:14:06;96515.75;;;27.46;31.58
74346;BME280;62776;50.518;6.732;2023-06-14T13:16:53;96518.69;;;27.66;31.38
74346;BME280;62776;50.518;6.732;2023-06-14T13:19:45;96516.03;;;27.77;30.58
74346;BME280;62776;50.518;6.732;2023-06-14T13:22:32;96516.28;;;28.07;28.98
74346;BME280;62776;50.518;6.732;2023-06-14T13:25:19;96516.34;;;28.39;29.39
74346;BME280;62776;50.518;6.732;2023-06-14T13:28:05;96508.84;;;28.76;27.94
74346;BME280;62776;50.518;6.732;2023-06-14T13:30:52;96515.56;;;28.91;28.24
74346;BME280;62776;50.518;6.732;2023-06-14T13:33:38;96508.59;;;29.61;27.94
74346;BME280;62776;50.518;6.732;2023-06-14T13:36:24;96521.00;;;30.13;26.59
74346;BME280;62776;50.518;6.732;2023-06-14T13:39:12;96518.31;;;30.44;26.55
74346;BME280;62776;50.518;6.732;2023-06-14T13:42:01;96511.25;;;30.62;25.34
74346;BME280;62776;50.518;6.732;2023-06-14T13:44:47;96504.59;;;30.56;24.91
74346;BME280;62776;50.518;6.732;2023-06-14T13:47:36;96508.63;;;31.00;25.29
74346;BME280;62776;50.518;6.732;2023-06-14T13:50:22;96522.69;;;31.69;24.64
74346;BME280;62776;50.518;6.732;2023-06-14T13:53:10;96513.69;;;31.22;24.14
74346;BME280;62776;50.518;6.732;2023-06-14T13:56:05;96512.66;;;31.98;24.24
74346;BME280;62776;50.518;6.732;2023-06-14T13:58:53;96512.28;;;32.48;23.15
74346;BME280;62776;50.518;6.732;2023-06-14T14:01:40;96507.03;;;32.91;22.72
74346;BME280;62776;50.518;6.732;2023-06-14T14:04:26;96500.31;;;33.48;22.40
74346;BME280;62776;50.518;6.732;2023-06-14T14:07:13;96499.06;;;33.60;21.74
74346;BME280;62776;50.518;6.732;2023-06-14T14:09:59;96503.50;;;33.52;22.88
74346;BME280;62776;50.518;6.732;2023-06-14T14:12:45;96504.69;;;33.23;22.89
74346;BME280;62776;50.518;6.732;2023-06-14T14:15:32;96509.03;;;33.24;22.84
74346;BME280;62776;50.518;6.732;2023-06-14T14:18:21;96507.63;;;33.12;22.45
74346;BME280;62776;50.518;6.732;2023-06-14T14:21:08;96510.06;;;33.23;23.28
74346;BME280;62776;50.518;6.732;2023-06-14T14:23:57;96502.66;;;33.95;22.06
74346;BME280;62776;50.518;6.732;2023-06-14T14:26:53;96511.91;;;34.68;22.92
74346;BME280;62776;50.518;6.732;2023-06-14T14:29:46;96514.72;;;35.16;21.51
74346;BME280;62776;50.518;6.732;2023-06-14T14:32:39;96516.41;;;35.33;21.77
74346;BME280;62776;50.518;6.732;2023-06-14T14:35:25;96508.97;;;35.68;20.73
74346;BME280;62776;50.518;6.732;2023-06-14T14:38:20;96513.91;;;35.56;20.81
74346;BME280;62776;50.518;6.732;2023-06-14T14:41:12;96522.78;;;36.05;21.00
74346;BME280;62776;50.518;6.732;2023-06-14T14:43:58;96515.47;;;36.14;20.38
74346;BME280;62776;50.518;6.732;2023-06-14T14:46:47;96517.94;;;36.39;20.67
74346;BME280;62776;50.518;6.732;2023-06-14T14:49:33;96521.59;;;36.46;20.54
74346;BME280;62776;50.518;6.732;2023-06-14T14:52:20;96513.19;;;36.41;20.07
74346;BME280;62776;50.518;6.732;2023-06-14T14:55:07;96521.00;;;36.36;20.21
74346;BME280;62776;50.518;6.732;2023-06-14T14:57:56;96509.91;;;36.54;20.29
74346;BME280;62776;50.518;6.732;2023-06-14T15:00:46;96525.25;;;36.31;19.82
74346;BME280;62776;50.518;6.732;2023-06-14T15:03:38;96529.03;;;36.14;19.94
74346;BME280;62776;50.518;6.732;2023-06-14T15:06:29;96522.16;;;35.06;20.52
74346;BME280;62776;50.518;6.732;2023-06-14T15:09:15;96527.16;;;34.77;21.01
74346;BME280;62776;50.518;6.732;2023-06-14T15:12:04;96529.94;;;35.17;20.87
74346;BME280;62776;50.518;6.732;2023-06-14T15:14:53;96528.59;;;35.62;20.38
74346;BME280;62776;50.518;6.732;2023-06-14T15:17:39;96530.94;;;35.73;20.52
74346;BME280;62776;50.518;6.732;2023-06-14T15:20:27;96534.03;;;34.29;21.31
74346;BME280;62776;50.518;6.732;2023-06-14T15:23:13;96535.13;;;32.89;23.20
74346;BME280;62776;50.518;6.732;2023-06-14T15:26:07;96537.38;;;31.65;23.65
74346;BME280;62776;50.518;6.732;2023-06-14T15:28:54;96535.72;;;30.68;24.72
74346;BME280;62776;50.518;6.732;2023-06-14T15:31:41;96527.78;;;30.67;24.46